sensor_id;sensor_type;location;lat;lon;timestamp;P1;durP1;ratioP1;P2;durP2;ratioP2
21183;SDS011;18176;49.502;11.754;2024-02-14T00:03:49;15.23;;;7.40;;
21183;SDS011;18176;49.502;11.754;2024-02-14T00:08:10;13.63;;;7.93;;
21183;SDS011;18176;49.502;11.754;2024-02-14T00:12:32;13.57;;;7.90;;
21183;SDS011;18176;49.502;11.754;2024-02-14T00:16:53;15.37;;;8.47;;
21183;SDS011;18176;49.502;11.754;2024-02-14T00:21:17;18.80;;;8.40;;
21183;SDS011;18176;49.502;11.754;2024-02-14T00:25:38;16.97;;;9.00;;
21183;SDS011;18176;49.502;11.754;2024-02-14T00:29:59;19.27;;;8.10;;
21183;SDS011;18176;49.502;11.754;2024-02-14T00:34:20;14.27;;;7.50;;
21183;SDS011;18176;49.502;11.754;2024-02-14T00:38:44;9.10;;;5.70;;
21183;SDS011;18176;49.502;11.754;2024-02-14T00:43:05;11.17;;;6.70;;
21183;SDS011;18176;49.502;11.754;2024-02-14T00:47:25;13.07;;;7.03;;
21183;SDS011;18176;49.502;11.754;2024-02-14T00:51:46;11.50;;;6.67;;
21183;SDS011;18176;49.502;11.754;2024-02-14T00:56:09;14.17;;;6.40;;
21183;SDS011;18176;49.502;11.754;2024-02-14T01:00:30;11.30;;;6.80;;
21183;SDS011;18176;49.502;11.754;2024-02-14T01:04:52;17.13;;;8.13;;
21183;SDS011;18176;49.502;11.754;2024-02-14T01:09:13;13.23;;;6.83;;
21183;SDS011;18176;49.502;11.754;2024-02-14T01:13:36;10.17;;;5.90;;
21183;SDS011;18176;49.502;11.754;2024-02-14T01:17:58;8.87;;;6.03;;
21183;SDS011;18176;49.502;11.754;2024-02-14T01:22:19;10.43;;;5.77;;
21183;SDS011;18176;49.502;11.754;2024-02-14T01:26:40;8.50;;;5.23;;
21183;SDS011;18176;49.502;11.754;2024-02-14T01:31:03;8.50;;;4.57;;
21183;SDS011;18176;49.502;11.754;2024-02-14T01:35:24;7.77;;;4.90;;
21183;SDS011;18176;49.502;11.754;2024-02-14T01:39:45;9.70;;;5.57;;
21183;SDS011;18176;49.502;11.754;2024-02-14T01:44:06;9.73;;;5.30;;
21183;SDS011;18176;49.502;11.754;2024-02-14T01:48:29;7.83;;;5.03;;
21183;SDS011;18176;49.502;11.754;2024-02-14T01:52:50;11.37;;;5.27;;
21183;SDS011;18176;49.502;11.754;2024-02-14T01:57:11;7.67;;;5.40;;
21183;SDS011;18176;49.502;11.754;2024-02-14T02:01:32;8.33;;;5.23;;
21183;SDS011;18176;49.502;11.754;2024-02-14T02:05:56;9.20;;;5.00;;
21183;SDS011;18176;49.502;11.754;2024-02-14T02:10:17;9.27;;;5.00;;
21183;SDS011;18176;49.502;11.754;2024-02-14T02:14:38;7.57;;;4.70;;
21183;SDS011;18176;49.502;11.754;2024-02-14T02:19:01;9.30;;;5.00;;
21183;SDS011;18176;49.502;11.754;2024-02-14T02:23:28;10.00;;;5.17;;
21183;SDS011;18176;49.502;11.754;2024-02-14T02:27:49;8.07;;;5.63;;
21183;SDS011;18176;49.502;11.754;2024-02-14T02:32:10;7.90;;;5.50;;
21183;SDS011;18176;49.502;11.754;2024-02-14T02:36:33;17.77;;;7.20;;
21183;SDS011;18176;49.502;11.754;2024-02-14T02:40:57;14.30;;;6.97;;
21183;SDS011;18176;49.502;11.754;2024-02-14T02:45:18;15.80;;;7.63;;
21183;SDS011;18176;49.502;11.754;2024-02-14T02:49:39;15.10;;;7.53;;
21183;SDS011;18176;49.502;11.754;2024-02-14T02:54:01;13.87;;;6.83;;
21183;SDS011;18176;49.502;11.754;2024-02-14T02:58:24;10.57;;;6.57;;
21183;SDS011;18176;49.502;11.754;2024-02-14T03:02:45;10.30;;;5.90;;
21183;SDS011;18176;49.502;11.754;2024-02-14T03:07:06;9.10;;;5.70;;
21183;SDS011;18176;49.502;11.754;2024-02-14T03:11:27;9.80;;;5.80;;
21183;SDS011;18176;49.502;11.754;2024-02-14T03:15:51;8.77;;;5.40;;
21183;SDS011;18176;49.502;11.754;2024-02-14T03:20:15;10.43;;;5.93;;
21183;SDS011;18176;49.502;11.754;2024-02-14T03:24:37;8.47;;;5.50;;
21183;SDS011;18176;49.502;11.754;2024-02-14T03:29:03;10.37;;;5.83;;
21183;SDS011;18176;49.502;11.754;2024-02-14T03:33:27;8.10;;;5.40;;
21183;SDS011;18176;49.502;11.754;2024-02-14T03:37:49;9.47;;;5.77;;
21183;SDS011;18176;49.502;11.754;2024-02-14T03:42:10;9.67;;;6.13;;
21183;SDS011;18176;49.502;11.754;2024-02-14T03:46:32;8.83;;;5.70;;
21183;SDS011;18176;49.502;11.754;2024-02-14T03:50:57;8.37;;;5.30;;
21183;SDS011;18176;49.502;11.754;2024-02-14T03:55:18;12.40;;;6.07;;
21183;SDS011;18176;49.502;11.754;2024-02-14T03:59:40;9.57;;;6.37;;
21183;SDS011;18176;49.502;11.754;2024-02-14T04:04:01;11.00;;;6.10;;
21183;SDS011;18176;49.502;11.754;2024-02-14T04:08:25;10.40;;;6.07;;
21183;SDS011;18176;49.502;11.754;2024-02-14T04:12:46;9.60;;;6.80;;
21183;SDS011;18176;49.502;11.754;2024-02-14T04:17:07;8.00;;;5.57;;
21183;SDS011;18176;49.502;11.754;2024-02-14T04:21:30;10.03;;;5.83;;
21183;SDS011;18176;49.502;11.754;2024-02-14T04:25:54;9.83;;;6.03;;
21183;SDS011;18176;49.502;11.754;2024-02-14T04:30:14;10.93;;;6.20;;
21183;SDS011;18176;49.502;11.754;2024-02-14T04:34:35;22.23;;;9.73;;
21183;SDS011;18176;49.502;11.754;2024-02-14T04:38:57;14.20;;;7.27;;
21183;SDS011;18176;49.502;11.754;2024-02-14T04:43:20;13.77;;;6.90;;
21183;SDS011;18176;49.502;11.754;2024-02-14T04:47:41;12.13;;;6.33;;
21183;SDS011;18176;49.502;11.754;2024-02-14T04:52:02;11.57;;;6.07;;
21183;SDS011;18176;49.502;11.754;2024-02-14T04:56:24;10.60;;;6.80;;
21183;SDS011;18176;49.502;11.754;2024-02-14T05:00:48;10.83;;;7.20;;
21183;SDS011;18176;49.502;11.754;2024-02-14T05:05:09;13.00;;;7.70;;
21183;SDS011;18176;49.502;11.754;2024-02-14T05:09:30;18.03;;;9.33;;
21183;SDS011;18176;49.502;11.754;2024-02-14T05:13:51;13.60;;;8.20;;
21183;SDS011;18176;49.502;11.754;2024-02-14T05:18:14;17.87;;;7.77;;
21183;SDS011;18176;49.502;11.754;2024-02-14T05:22:36;11.37;;;7.13;;
21183;SDS011;18176;49.502;11.754;2024-02-14T05:26:57;9.53;;;6.53;;
21183;SDS011;18176;49.502;11.754;2024-02-14T05:31:18;10.30;;;6.73;;
21183;SDS011;18176;49.502;11.754;2024-02-14T05:35:41;11.27;;;6.90;;
21183;SDS011;18176;49.502;11.754;2024-02-14T05:40:04;13.00;;;6.77;;
21183;SDS011;18176;49.502;11.754;2024-02-14T05:44:27;10.20;;;6.57;;
21183;SDS011;18176;49.502;11.754;2024-02-14T05:48:47;11.60;;;6.70;;
21183;SDS011;18176;49.502;11.754;2024-02-14T05:53:12;9.53;;;6.83;;
21183;SDS011;18176;49.502;11.754;2024-02-14T05:57:33;11.07;;;6.97;;
21183;SDS011;18176;49.502;11.754;2024-02-14T06:01:54;8.10;;;6.20;;
21183;SDS011;18176;49.502;11.754;2024-02-14T06:06:15;8.77;;;6.53;;
21183;SDS011;18176;49.502;11.754;2024-02-14T06:10:38;14.57;;;7.60;;
21183;SDS011;18176;49.502;11.754;2024-02-14T06:14:59;11.47;;;6.70;;
21183;SDS011;18176;49.502;11.754;2024-02-14T06:19:21;11.93;;;7.50;;
21183;SDS011;18176;49.502;11.754;2024-02-14T06:23:42;14.53;;;8.33;;
21183;SDS011;18176;49.502;11.754;2024-02-14T06:28:06;14.87;;;10.00;;
21183;SDS011;18176;49.502;11.754;2024-02-14T06:32:27;14.73;;;8.97;;
21183;SDS011;18176;49.502;11.754;2024-02-14T06:36:48;11.30;;;8.43;;
21183;SDS011;18176;49.502;11.754;2024-02-14T06:41:09;17.63;;;10.07;;
21183;SDS011;18176;49.502;11.754;2024-02-14T06:45:32;19.13;;;10.47;;
21183;SDS011;18176;49.502;11.754;2024-02-14T06:49:53;21.60;;;12.03;;
21183;SDS011;18176;49.502;11.754;2024-02-14T06:54:14;20.60;;;11.63;;
21183;SDS011;18176;49.502;11.754;2024-02-14T06:58:36;15.90;;;11.20;;
21183;SDS011;18176;49.502;11.754;2024-02-14T07:02:59;20.70;;;11.43;;
21183;SDS011;18176;49.502;11.754;2024-02-14T07:07:20;19.53;;;12.07;;
21183;SDS011;18176;49.502;11.754;2024-02-14T07:11:43;18.53;;;12.30;;
21183;SDS011;18176;49.502;11.754;2024-02-14T07:16:04;20.17;;;12.30;;
21183;SDS011;18176;49.502;11.754;2024-02-14T07:20:30;17.03;;;10.63;;
21183;SDS011;18176;49.502;11.754;2024-02-14T07:24:51;19.53;;;11.90;;
21183;SDS011;18176;49.502;11.754;2024-02-14T07:29:12;19.77;;;11.90;;
21183;SDS011;18176;49.502;11.754;2024-02-14T07:33:33;17.57;;;12.20;;
21183;SDS011;18176;49.502;11.754;2024-02-14T07:37:56;21.40;;;12.87;;
21183;SDS011;18176;49.502;11.754;2024-02-14T07:42:17;21.47;;;13.03;;
21183;SDS011;18176;49.502;11.754;2024-02-14T07:46:38;22.60;;;14.07;;
21183;SDS011;18176;49.502;11.754;2024-02-14T07:50:58;19.73;;;12.90;;
21183;SDS011;18176;49.502;11.754;2024-02-14T07:55:22;19.53;;;12.53;;
21183;SDS011;18176;49.502;11.754;2024-02-14T07:59:43;17.90;;;13.33;;
21183;SDS011;18176;49.502;11.754;2024-02-14T08:04:03;21.97;;;13.03;;
21183;SDS011;18176;49.502;11.754;2024-02-14T08:08:24;17.67;;;11.10;;
21183;SDS011;18176;49.502;11.754;2024-02-14T08:12:48;15.40;;;10.70;;
21183;SDS011;18176;49.502;11.754;2024-02-14T08:17:09;13.73;;;9.97;;
21183;SDS011;18176;49.502;11.754;2024-02-14T08:21:29;16.53;;;10.93;;
21183;SDS011;18176;49.502;11.754;2024-02-14T08:25:51;17.43;;;10.57;;
21183;SDS011;18176;49.502;11.754;2024-02-14T08:30:14;18.73;;;10.57;;
21183;SDS011;18176;49.502;11.754;2024-02-14T08:34:36;14.73;;;10.53;;
21183;SDS011;18176;49.502;11.754;2024-02-14T08:38:57;16.33;;;11.10;;
21183;SDS011;18176;49.502;11.754;2024-02-14T08:43:18;13.87;;;9.47;;
21183;SDS011;18176;49.502;11.754;2024-02-14T08:47:42;17.17;;;9.00;;
21183;SDS011;18176;49.502;11.754;2024-02-14T08:52:04;16.13;;;9.57;;
21183;SDS011;18176;49.502;11.754;2024-02-14T08:56:25;13.93;;;8.87;;
21183;SDS011;18176;49.502;11.754;2024-02-14T09:00:49;11.27;;;7.97;;
21183;SDS011;18176;49.502;11.754;2024-02-14T09:05:27;19.33;;;10.30;;
21183;SDS011;18176;49.502;11.754;2024-02-14T09:09:49;21.60;;;10.17;;
21183;SDS011;18176;49.502;11.754;2024-02-14T09:14:10;15.20;;;8.67;;
21183;SDS011;18176;49.502;11.754;2024-02-14T09:18:31;12.30;;;7.23;;
21183;SDS011;18176;49.502;11.754;2024-02-14T09:22:55;10.57;;;7.53;;
21183;SDS011;18176;49.502;11.754;2024-02-14T09:27:15;15.53;;;8.37;;
21183;SDS011;18176;49.502;11.754;2024-02-14T09:31:37;14.53;;;7.83;;
21183;SDS011;18176;49.502;11.754;2024-02-14T09:35:58;16.23;;;9.47;;
21183;SDS011;18176;49.502;11.754;2024-02-14T09:40:21;11.40;;;8.50;;
21183;SDS011;18176;49.502;11.754;2024-02-14T09:44:43;13.53;;;8.20;;
21183;SDS011;18176;49.502;11.754;2024-02-14T09:49:05;13.93;;;8.37;;
21183;SDS011;18176;49.502;11.754;2024-02-14T09:53:27;14.60;;;8.60;;
21183;SDS011;18176;49.502;11.754;2024-02-14T09:57:52;13.30;;;8.20;;
21183;SDS011;18176;49.502;11.754;2024-02-14T10:02:16;16.33;;;9.33;;
21183;SDS011;18176;49.502;11.754;2024-02-14T10:06:37;12.77;;;8.93;;
21183;SDS011;18176;49.502;11.754;2024-02-14T10:10:58;16.10;;;8.90;;
21183;SDS011;18176;49.502;11.754;2024-02-14T10:15:23;16.17;;;8.73;;
21183;SDS011;18176;49.502;11.754;2024-02-14T10:19:54;15.40;;;9.30;;
21183;SDS011;18176;49.502;11.754;2024-02-14T10:24:17;11.47;;;7.73;;
21183;SDS011;18176;49.502;11.754;2024-02-14T10:28:40;12.33;;;7.40;;
21183;SDS011;18176;49.502;11.754;2024-02-14T10:33:09;11.03;;;7.37;;
21183;SDS011;18176;49.502;11.754;2024-02-14T10:37:40;15.97;;;8.30;;
21183;SDS011;18176;49.502;11.754;2024-02-14T10:42:02;15.80;;;9.33;;
21183;SDS011;18176;49.502;11.754;2024-02-14T10:46:23;14.37;;;7.70;;
21183;SDS011;18176;49.502;11.754;2024-02-14T10:50:51;15.87;;;8.50;;
21183;SDS011;18176;49.502;11.754;2024-02-14T10:55:15;12.43;;;7.63;;
21183;SDS011;18176;49.502;11.754;2024-02-14T10:59:37;9.30;;;7.23;;
21183;SDS011;18176;49.502;11.754;2024-02-14T11:04:03;14.37;;;8.20;;
21183;SDS011;18176;49.502;11.754;2024-02-14T11:08:28;12.83;;;7.20;;
21183;SDS011;18176;49.502;11.754;2024-02-14T11:12:49;9.13;;;6.50;;
21183;SDS011;18176;49.502;11.754;2024-02-14T11:17:10;10.13;;;6.43;;
21183;SDS011;18176;49.502;11.754;2024-02-14T11:21:35;14.53;;;6.80;;
21183;SDS011;18176;49.502;11.754;2024-02-14T11:26:02;8.10;;;5.00;;
21183;SDS011;18176;49.502;11.754;2024-02-14T11:30:29;7.80;;;5.17;;
21183;SDS011;18176;49.502;11.754;2024-02-14T11:34:53;8.40;;;4.20;;
21183;SDS011;18176;49.502;11.754;2024-02-14T11:39:16;6.93;;;3.97;;
21183;SDS011;18176;49.502;11.754;2024-02-14T11:43:50;7.10;;;3.60;;
21183;SDS011;18176;49.502;11.754;2024-02-14T11:48:11;7.13;;;3.50;;
21183;SDS011;18176;49.502;11.754;2024-02-14T11:52:33;4.67;;;2.40;;
21183;SDS011;18176;49.502;11.754;2024-02-14T11:56:54;5.30;;;2.60;;
21183;SDS011;18176;49.502;11.754;2024-02-14T12:01:20;5.07;;;2.80;;
21183;SDS011;18176;49.502;11.754;2024-02-14T12:05:46;6.10;;;2.67;;
21183;SDS011;18176;49.502;11.754;2024-02-14T12:10:10;4.80;;;2.53;;
21183;SDS011;18176;49.502;11.754;2024-02-14T12:14:32;6.87;;;2.60;;
21183;SDS011;18176;49.502;11.754;2024-02-14T12:19:03;3.40;;;2.60;;
21183;SDS011;18176;49.502;11.754;2024-02-14T12:23:28;5.37;;;2.87;;
21183;SDS011;18176;49.502;11.754;2024-02-14T12:27:52;4.50;;;2.57;;
21183;SDS011;18176;49.502;11.754;2024-02-14T12:32:16;4.87;;;2.90;;
21183;SDS011;18176;49.502;11.754;2024-02-14T12:36:41;5.50;;;2.70;;
21183;SDS011;18176;49.502;11.754;2024-02-14T12:41:01;7.57;;;3.37;;
21183;SDS011;18176;49.502;11.754;2024-02-14T12:45:22;4.93;;;2.33;;
21183;SDS011;18176;49.502;11.754;2024-02-14T12:49:43;4.17;;;2.70;;
21183;SDS011;18176;49.502;11.754;2024-02-14T12:54:08;5.70;;;2.50;;
21183;SDS011;18176;49.502;11.754;2024-02-14T12:58:30;3.30;;;2.27;;
21183;SDS011;18176;49.502;11.754;2024-02-14T13:02:52;7.67;;;2.60;;
21183;SDS011;18176;49.502;11.754;2024-02-14T13:07:14;5.10;;;2.40;;
21183;SDS011;18176;49.502;11.754;2024-02-14T13:11:37;5.33;;;2.40;;
21183;SDS011;18176;49.502;11.754;2024-02-14T13:15:58;3.23;;;2.17;;
21183;SDS011;18176;49.502;11.754;2024-02-14T13:20:19;4.77;;;2.60;;
21183;SDS011;18176;49.502;11.754;2024-02-14T13:24:40;4.10;;;2.10;;
21183;SDS011;18176;49.502;11.754;2024-02-14T13:29:04;3.47;;;1.80;;
21183;SDS011;18176;49.502;11.754;2024-02-14T13:33:24;4.27;;;1.93;;
21183;SDS011;18176;49.502;11.754;2024-02-14T13:37:45;3.40;;;2.10;;
21183;SDS011;18176;49.502;11.754;2024-02-14T13:42:06;4.13;;;2.05;;
21183;SDS011;18176;49.502;11.754;2024-02-14T13:46:30;5.35;;;2.00;;
21183;SDS011;18176;49.502;11.754;2024-02-14T13:50:51;4.00;;;1.90;;
21183;SDS011;18176;49.502;11.754;2024-02-14T13:55:11;5.40;;;1.75;;
21183;SDS011;18176;49.502;11.754;2024-02-14T13:59:32;3.67;;;1.77;;
21183;SDS011;18176;49.502;11.754;2024-02-14T14:03:56;3.23;;;1.60;;
21183;SDS011;18176;49.502;11.754;2024-02-14T14:08:16;5.33;;;2.00;;
21183;SDS011;18176;49.502;11.754;2024-02-14T14:12:37;4.07;;;2.23;;
21183;SDS011;18176;49.502;11.754;2024-02-14T14:16:58;2.97;;;1.77;;
21183;SDS011;18176;49.502;11.754;2024-02-14T14:21:21;4.70;;;1.77;;
21183;SDS011;18176;49.502;11.754;2024-02-14T14:25:42;3.77;;;1.80;;
21183;SDS011;18176;49.502;11.754;2024-02-14T14:30:03;2.88;;;1.52;;
21183;SDS011;18176;49.502;11.754;2024-02-14T14:34:25;3.50;;;1.58;;
21183;SDS011;18176;49.502;11.754;2024-02-14T14:38:50;3.35;;;2.30;;
21183;SDS011;18176;49.502;11.754;2024-02-14T14:43:11;3.33;;;1.80;;
21183;SDS011;18176;49.502;11.754;2024-02-14T14:47:33;4.13;;;1.63;;
21183;SDS011;18176;49.502;11.754;2024-02-14T14:51:54;4.18;;;2.00;;
21183;SDS011;18176;49.502;11.754;2024-02-14T14:56:18;4.23;;;1.90;;
21183;SDS011;18176;49.502;11.754;2024-02-14T15:00:42;5.43;;;2.27;;
21183;SDS011;18176;49.502;11.754;2024-02-14T15:05:03;2.87;;;1.47;;
21183;SDS011;18176;49.502;11.754;2024-02-14T15:09:25;5.27;;;1.70;;
21183;SDS011;18176;49.502;11.754;2024-02-14T15:13:50;3.97;;;2.10;;
21183;SDS011;18176;49.502;11.754;2024-02-14T15:18:11;3.57;;;2.10;;
21183;SDS011;18176;49.502;11.754;2024-02-14T15:22:32;5.43;;;1.63;;
21183;SDS011;18176;49.502;11.754;2024-02-14T15:26:53;5.30;;;1.80;;
21183;SDS011;18176;49.502;11.754;2024-02-14T15:31:20;8.33;;;2.40;;
21183;SDS011;18176;49.502;11.754;2024-02-14T15:35:54;9.30;;;1.93;;
21183;SDS011;18176;49.502;11.754;2024-02-14T15:40:17;8.40;;;3.87;;
21183;SDS011;18176;49.502;11.754;2024-02-14T15:44:40;8.20;;;2.80;;
21183;SDS011;18176;49.502;11.754;2024-02-14T15:49:03;6.20;;;2.20;;
21183;SDS011;18176;49.502;11.754;2024-02-14T15:53:29;7.63;;;3.87;;
21183;SDS011;18176;49.502;11.754;2024-02-14T15:57:50;5.17;;;2.70;;
21183;SDS011;18176;49.502;11.754;2024-02-14T16:02:11;6.40;;;3.20;;
21183;SDS011;18176;49.502;11.754;2024-02-14T16:06:34;10.27;;;4.47;;
21183;SDS011;18176;49.502;11.754;2024-02-14T16:10:55;3.70;;;2.10;;
21183;SDS011;18176;49.502;11.754;2024-02-14T16:15:16;4.57;;;2.50;;
21183;SDS011;18176;49.502;11.754;2024-02-14T16:19:37;6.10;;;2.83;;
21183;SDS011;18176;49.502;11.754;2024-02-14T16:24:01;4.10;;;2.37;;
21183;SDS011;18176;49.502;11.754;2024-02-14T16:28:22;9.50;;;5.40;;
21183;SDS011;18176;49.502;11.754;2024-02-14T16:32:42;7.67;;;5.07;;
21183;SDS011;18176;49.502;11.754;2024-02-14T16:37:04;6.60;;;4.23;;
21183;SDS011;18176;49.502;11.754;2024-02-14T16:41:28;9.53;;;5.10;;
21183;SDS011;18176;49.502;11.754;2024-02-14T16:45:49;6.60;;;4.03;;
21183;SDS011;18176;49.502;11.754;2024-02-14T16:50:10;12.17;;;6.83;;
21183;SDS011;18176;49.502;11.754;2024-02-14T16:54:31;14.03;;;8.33;;
21183;SDS011;18176;49.502;11.754;2024-02-14T16:58:55;11.30;;;6.50;;
21183;SDS011;18176;49.502;11.754;2024-02-14T17:03:15;15.23;;;9.50;;
21183;SDS011;18176;49.502;11.754;2024-02-14T17:07:41;14.23;;;9.30;;
21183;SDS011;18176;49.502;11.754;2024-02-14T17:12:02;19.97;;;12.10;;
21183;SDS011;18176;49.502;11.754;2024-02-14T17:16:28;12.93;;;8.97;;
21183;SDS011;18176;49.502;11.754;2024-02-14T17:20:49;12.80;;;8.53;;
21183;SDS011;18176;49.502;11.754;2024-02-14T17:25:09;17.40;;;10.77;;
21183;SDS011;18176;49.502;11.754;2024-02-14T17:29:30;16.27;;;10.60;;
21183;SDS011;18176;49.502;11.754;2024-02-14T17:33:54;12.10;;;8.43;;
21183;SDS011;18176;49.502;11.754;2024-02-14T17:38:15;8.97;;;6.60;;
21183;SDS011;18176;49.502;11.754;2024-02-14T17:42:35;11.17;;;7.10;;
21183;SDS011;18176;49.502;11.754;2024-02-14T17:46:56;12.30;;;6.30;;
21183;SDS011;18176;49.502;11.754;2024-02-14T17:51:19;14.90;;;8.13;;
21183;SDS011;18176;49.502;11.754;2024-02-14T17:55:40;13.37;;;8.80;;
21183;SDS011;18176;49.502;11.754;2024-02-14T18:00:01;23.00;;;9.83;;
21183;SDS011;18176;49.502;11.754;2024-02-14T18:04:29;11.00;;;7.37;;
21183;SDS011;18176;49.502;11.754;2024-02-14T18:08:53;14.43;;;7.70;;
21183;SDS011;18176;49.502;11.754;2024-02-14T18:13:15;14.50;;;9.17;;
21183;SDS011;18176;49.502;11.754;2024-02-14T18:17:36;10.37;;;7.37;;
21183;SDS011;18176;49.502;11.754;2024-02-14T18:21:57;10.80;;;6.60;;
21183;SDS011;18176;49.502;11.754;2024-02-14T18:26:21;15.73;;;8.03;;
21183;SDS011;18176;49.502;11.754;2024-02-14T18:30:41;10.40;;;6.57;;
21183;SDS011;18176;49.502;11.754;2024-02-14T18:35:03;10.87;;;5.77;;
21183;SDS011;18176;49.502;11.754;2024-02-14T18:39:24;12.67;;;6.33;;
21183;SDS011;18176;49.502;11.754;2024-02-14T18:43:47;11.90;;;7.73;;
21183;SDS011;18176;49.502;11.754;2024-02-14T18:48:08;15.43;;;9.93;;
21183;SDS011;18176;49.502;11.754;2024-02-14T18:52:30;14.17;;;9.70;;
21183;SDS011;18176;49.502;11.754;2024-02-14T18:56:51;16.93;;;12.00;;
21183;SDS011;18176;49.502;11.754;2024-02-14T19:01:22;18.70;;;10.53;;
21183;SDS011;18176;49.502;11.754;2024-02-14T19:05:45;19.63;;;11.70;;
21183;SDS011;18176;49.502;11.754;2024-02-14T19:10:06;16.47;;;10.83;;
21183;SDS011;18176;49.502;11.754;2024-02-14T19:14:28;19.03;;;10.83;;
21183;SDS011;18176;49.502;11.754;2024-02-14T19:18:53;14.80;;;9.13;;
21183;SDS011;18176;49.502;11.754;2024-02-14T19:23:14;18.87;;;12.03;;
21183;SDS011;18176;49.502;11.754;2024-02-14T19:27:35;22.53;;;14.43;;
21183;SDS011;18176;49.502;11.754;2024-02-14T19:31:56;15.87;;;9.13;;
21183;SDS011;18176;49.502;11.754;2024-02-14T19:36:20;11.50;;;8.20;;
21183;SDS011;18176;49.502;11.754;2024-02-14T19:40:41;13.63;;;7.77;;
21183;SDS011;18176;49.502;11.754;2024-02-14T19:45:01;14.00;;;9.27;;
21183;SDS011;18176;49.502;11.754;2024-02-14T19:49:23;18.73;;;11.83;;
21183;SDS011;18176;49.502;11.754;2024-02-14T19:53:47;24.73;;;15.23;;
21183;SDS011;18176;49.502;11.754;2024-02-14T19:58:08;21.97;;;12.90;;
21183;SDS011;18176;49.502;11.754;2024-02-14T20:02:29;17.93;;;12.53;;
21183;SDS011;18176;49.502;11.754;2024-02-14T20:06:50;23.10;;;12.90;;
21183;SDS011;18176;49.502;11.754;2024-02-14T20:11:15;18.63;;;12.17;;
21183;SDS011;18176;49.502;11.754;2024-02-14T20:15:36;19.97;;;12.50;;
21183;SDS011;18176;49.502;11.754;2024-02-14T20:19:57;14.17;;;9.90;;
21183;SDS011;18176;49.502;11.754;2024-02-14T20:24:18;18.23;;;10.77;;
21183;SDS011;18176;49.502;11.754;2024-02-14T20:28:44;16.57;;;11.40;;
21183;SDS011;18176;49.502;11.754;2024-02-14T20:33:05;22.23;;;11.57;;
21183;SDS011;18176;49.502;11.754;2024-02-14T20:37:26;17.77;;;10.43;;
21183;SDS011;18176;49.502;11.754;2024-02-14T20:41:47;16.00;;;10.87;;
21183;SDS011;18176;49.502;11.754;2024-02-14T20:46:10;19.80;;;11.83;;
21183;SDS011;18176;49.502;11.754;2024-02-14T20:50:32;15.73;;;11.33;;
21183;SDS011;18176;49.502;11.754;2024-02-14T20:54:53;19.17;;;11.33;;
21183;SDS011;18176;49.502;11.754;2024-02-14T20:59:16;16.97;;;11.23;;
21183;SDS011;18176;49.502;11.754;2024-02-14T21:03:40;20.07;;;11.70;;
21183;SDS011;18176;49.502;11.754;2024-02-14T21:08:00;18.60;;;12.60;;
21183;SDS011;18176;49.502;11.754;2024-02-14T21:12:21;20.90;;;12.77;;
21183;SDS011;18176;49.502;11.754;2024-02-14T21:16:42;21.70;;;14.10;;
21183;SDS011;18176;49.502;11.754;2024-02-14T21:21:05;22.63;;;12.73;;
21183;SDS011;18176;49.502;11.754;2024-02-14T21:25:26;13.30;;;9.47;;
21183;SDS011;18176;49.502;11.754;2024-02-14T21:29:47;15.63;;;9.37;;
21183;SDS011;18176;49.502;11.754;2024-02-14T21:34:08;18.53;;;11.50;;
21183;SDS011;18176;49.502;11.754;2024-02-14T21:38:32;18.03;;;11.80;;
21183;SDS011;18176;49.502;11.754;2024-02-14T21:42:53;15.07;;;8.70;;
21183;SDS011;18176;49.502;11.754;2024-02-14T21:47:14;16.60;;;10.00;;
21183;SDS011;18176;49.502;11.754;2024-02-14T21:51:35;12.70;;;8.27;;
21183;SDS011;18176;49.502;11.754;2024-02-14T21:55:59;12.77;;;8.57;;
21183;SDS011;18176;49.502;11.754;2024-02-14T22:00:20;16.87;;;9.97;;
21183;SDS011;18176;49.502;11.754;2024-02-14T22:04:41;15.53;;;10.00;;
21183;SDS011;18176;49.502;11.754;2024-02-14T22:09:02;16.50;;;9.97;;
21183;SDS011;18176;49.502;11.754;2024-02-14T22:13:27;18.20;;;10.00;;
21183;SDS011;18176;49.502;11.754;2024-02-14T22:17:51;14.30;;;9.97;;
21183;SDS011;18176;49.502;11.754;2024-02-14T22:22:13;13.37;;;8.43;;
21183;SDS011;18176;49.502;11.754;2024-02-14T22:26:35;12.63;;;8.47;;
21183;SDS011;18176;49.502;11.754;2024-02-14T22:30:59;12.17;;;9.17;;
21183;SDS011;18176;49.502;11.754;2024-02-14T22:35:21;12.03;;;8.83;;
21183;SDS011;18176;49.502;11.754;2024-02-14T22:39:42;13.27;;;8.73;;
21183;SDS011;18176;49.502;11.754;2024-02-14T22:44:02;17.30;;;10.53;;
21183;SDS011;18176;49.502;11.754;2024-02-14T22:48:27;15.37;;;9.63;;
21183;SDS011;18176;49.502;11.754;2024-02-14T22:52:48;13.50;;;9.07;;
21183;SDS011;18176;49.502;11.754;2024-02-14T22:57:09;15.87;;;10.83;;
21183;SDS011;18176;49.502;11.754;2024-02-14T23:01:30;19.10;;;10.93;;
21183;SDS011;18176;49.502;11.754;2024-02-14T23:05:53;18.90;;;12.80;;
21183;SDS011;18176;49.502;11.754;2024-02-14T23:10:14;17.63;;;10.27;;
21183;SDS011;18176;49.502;11.754;2024-02-14T23:14:37;16.70;;;10.97;;
21183;SDS011;18176;49.502;11.754;2024-02-14T23:19:01;16.17;;;10.13;;
21183;SDS011;18176;49.502;11.754;2024-02-14T23:23:25;17.00;;;9.10;;
21183;SDS011;18176;49.502;11.754;2024-02-14T23:27:46;15.70;;;9.60;;
21183;SDS011;18176;49.502;11.754;2024-02-14T23:32:07;13.70;;;8.13;;
21183;SDS011;18176;49.502;11.754;2024-02-14T23:36:28;13.67;;;8.37;;
21183;SDS011;18176;49.502;11.754;2024-02-14T23:40:52;13.40;;;7.67;;
21183;SDS011;18176;49.502;11.754;2024-02-14T23:45:13;13.07;;;8.20;;
21183;SDS011;18176;49.502;11.754;2024-02-14T23:49:35;17.43;;;8.27;;
21183;SDS011;18176;49.502;11.754;2024-02-14T23:53:56;12.77;;;7.83;;
21183;SDS011;18176;49.502;11.754;2024-02-14T23:58:19;10.57;;;7.83;;
